Terminal Aerodrome Forecast
Issued by NWS

Home | Current Version | Previous Version | Text Only | Print | Product List | Glossary On
Versions: 1 2 3 4 5 6 7 8 9 10 11 12 13 14 15 16 17 18 19 20
000
FTUS41 KBOX 190525
TAFHYA
TAF
KHYA 190525Z 1906/2006 05009KT P6SM OVC015
     FM190800 02007KT 5SM BR OVC015
     FM191400 31005KT P6SM OVC025
     FM191700 31006KT P6SM BKN040
     FM192100 34006KT P6SM SCT080=

USA.gov is the U.S. government's official web portal to all federal, state and local government web resources and services.